Terminal Aerodrome Forecast
Issued by NWS Mt. Holly, NJ

Home | Current Version | Previous Version | Text Only | Print | Product List | Glossary On
Versions: 1 2 3 4 5 6 7 8 9 10 11 12 13 14 15 16 17 18 19 20 21 22 23 24
000
FTUS41 KPHI 151905 AAA
TAFRDG
TAF AMD
KRDG 151905Z 1519/1618 VRB03KT 1SM -SN OVC025
      TEMPO 1519/1522 3SM -SN OVC015
     FM152200 VRB02KT P6SM BKN015
     FM160100 VRB03KT P6SM BKN040
     FM160500 26007KT P6SM SKC
     FM161200 23006KT P6SM BKN060
     FM161600 24010G18KT P6SM BKN030=

USA.gov is the U.S. government's official web portal to all federal, state and local government web resources and services.